Portada
METAR-TAF:

METAR-TAF

Aeroports :

Cairns, Austràlia

latitud: 16-53S, longitud: 145-45E, altitud: 3 m

Observació

L'informe es va fer fa 18 minuts, a les 19:37 UTC
Vent 1 kt del Oest
Temperatura 21°C
Humitat 88%
Pressió 1011 hPa
Visibilitat 10 km o més
Cel ennuvolat a una alçada de 2100 ft
Cel ennuvolat a una alçada de 3000 ft

METAR: YBCS 131937Z AUTO 28001KT 9999 // BKN021 BKN030 21/19 Q1011

Hora: 05:55 (19:55 UTC)

Pronòstic

L'informe es va fer fa 2 hores i 32 minuts, a les 17:23 UTC
Pronòstic vàlid del 13 a les 18 UTC al 14 a les 18 UTC
Vent 6 kt del Sud/Sud-Est
Visibilitat 10 km o més
Escasses núvols a una alçada de 2500 ft
A partir de les 13 a les 2300 UTC
Vent 12 kt del Nord-Est
Visibilitat 10 km o més
Escasses núvols a una alçada de 3000 ft
A partir de les 14 a les 0800 UTC
Vent 6 kt del Sud/Sud-Est
Visibilitat 10 km o més
Escasses núvols a una alçada de 2500 ft

TAF: YBCS 131723Z 1318/1418 16006KT 9999 FEW025 FM132300 05012KT 9999 FEW030 FM140800 16006KT 9999 FEW025

Observacions i pronòstics meteorològics de més de 4000 aeroports (METAR i TAF).

Les estacions disponibles són els punts grocs i vermells al mapa.

Posi el ratolí al punt desitjat per veure el nom de l'estació.

Feu clic per veure les observacions i els pronòstics meteorològics.

Per canviar el mapa: feu clic els botons verds amb una creu de color negre per apropar; al botó verd amb un guió per allunyar la imatge; o en les fletxes verdes per a mapes adjacents.


METAR-TAF: